Time;durP1;ratioP1;P1;durP2;ratioP2;P2;SDS_P1;SDS_P2;PMS_P1;PMS_P2;Temp;Humidity;BMP_temperature;BMP_pressure;BME280_temperature;BME280_humidity;BME280_pressure;Samples;Min_cycle;Max_cycle;Signal;HPM_P1;HPM_P2
2022/12/03 00:01:03;;;;;;;84.45;18.67;;;;;;;;;;5013902;28;20207;-77
2022/12/03 00:03:34;;;;;;;84.80;20.88;;;;;;;;;;5013370;28;20638;-77
2022/12/03 00:06:01;;;;;;;82.85;20.00;;;;;;;;;;5013075;28;20219;-77
2022/12/03 00:08:29;;;;;;;83.97;20.15;;;;;;;;;;5013024;28;20220;-78
2022/12/03 00:14:07;;;;;;;82.80;18.65;;;;;;;;;;5011812;28;20202;-76
2022/12/03 00:16:34;;;;;;;86.50;21.17;;;;;;;;;;5013143;28;20247;-77
2022/12/03 00:21:44;;;;;;;82.22;18.33;;;;;;;;;;5014955;28;20206;-77
2022/12/03 00:24:11;;;;;;;81.28;20.20;;;;;;;;;;5012689;28;20229;-75
2022/12/03 00:26:41;;;;;;;86.97;20.13;;;;;;;;;;5012992;28;20211;-78
2022/12/03 00:29:10;;;;;;;87.97;21.73;;;;;;;;;;5012650;28;20302;-77
2022/12/03 00:31:37;;;;;;;84.18;19.58;;;;;;;;;;5012911;28;20263;-77
2022/12/03 00:34:04;;;;;;;79.72;19.65;;;;;;;;;;5012915;28;20576;-77
2022/12/03 00:36:32;;;;;;;80.28;19.33;;;;;;;;;;5012673;28;20212;-76
2022/12/03 00:38:59;;;;;;;81.05;19.80;;;;;;;;;;5011952;28;20254;-77
2022/12/03 00:41:26;;;;;;;82.47;18.80;;;;;;;;;;5012260;28;20213;-76
2022/12/03 00:43:56;;;;;;;81.72;19.75;;;;;;;;;;5012608;28;20300;-77
2022/12/03 00:46:25;;;;;;;84.20;19.88;;;;;;;;;;5012253;28;20250;-77
2022/12/03 00:48:52;;;;;;;79.13;18.58;;;;;;;;;;5012440;28;20245;-78
2022/12/03 00:51:19;;;;;;;80.03;19.23;;;;;;;;;;5012881;28;20292;-77
2022/12/03 00:56:50;;;;;;;81.88;19.15;;;;;;;;;;5012549;28;20305;-76
2022/12/03 00:59:17;;;;;;;80.65;20.13;;;;;;;;;;5011481;28;20311;-77
2022/12/03 01:01:46;;;;;;;82.85;19.48;;;;;;;;;;5013801;28;20214;-78
2022/12/03 01:04:13;;;;;;;79.80;18.67;;;;;;;;;;5012436;28;20322;-76
2022/12/03 01:06:40;;;;;;;83.63;20.45;;;;;;;;;;5011986;28;20210;-76
2022/12/03 01:09:08;;;;;;;81.68;19.13;;;;;;;;;;5011083;28;20262;-77
2022/12/03 01:11:38;;;;;;;82.28;19.55;;;;;;;;;;5011810;28;20683;-77
2022/12/03 01:14:06;;;;;;;81.28;18.35;;;;;;;;;;5011991;28;20296;-77
2022/12/03 01:16:33;;;;;;;81.88;19.80;;;;;;;;;;5015832;28;20553;-77
2022/12/03 01:19:02;;;;;;;80.78;19.55;;;;;;;;;;5031148;28;20309;-77
2022/12/03 01:21:29;;;;;;;83.32;18.23;;;;;;;;;;5031992;28;20784;-77
2022/12/03 01:23:56;;;;;;;80.15;18.33;;;;;;;;;;5031790;28;20735;-77
2022/12/03 01:26:24;;;;;;;83.25;19.25;;;;;;;;;;5031886;28;20234;-77
2022/12/03 01:28:51;;;;;;;81.43;19.88;;;;;;;;;;5030907;28;20324;-77
2022/12/03 01:34:05;;;;;;;82.47;19.48;;;;;;;;;;5031819;28;20223;-77
2022/12/03 01:36:33;;;;;;;77.78;17.80;;;;;;;;;;5031672;28;20680;-77
2022/12/03 01:39:00;;;;;;;82.20;20.38;;;;;;;;;;5030976;28;20286;-77
2022/12/03 01:41:27;;;;;;;80.93;18.55;;;;;;;;;;5031689;28;20693;-77
2022/12/03 01:43:55;;;;;;;79.82;18.13;;;;;;;;;;5031892;28;20253;-77
2022/12/03 01:46:24;;;;;;;83.63;19.55;;;;;;;;;;5031795;28;20216;-77
2022/12/03 01:48:53;;;;;;;77.75;18.45;;;;;;;;;;5030743;28;20231;-77
2022/12/03 01:51:22;;;;;;;82.10;19.77;;;;;;;;;;5032222;28;20212;-77
2022/12/03 01:53:49;;;;;;;79.85;20.27;;;;;;;;;;5035568;28;20235;-77
2022/12/03 01:56:18;;;;;;;80.55;19.15;;;;;;;;;;5035519;28;20231;-77
2022/12/03 01:58:46;;;;;;;86.57;18.85;;;;;;;;;;5034496;28;20303;-77
2022/12/03 02:01:14;;;;;;;82.47;19.20;;;;;;;;;;5035642;28;20221;-77
2022/12/03 02:03:42;;;;;;;82.20;20.48;;;;;;;;;;5035517;28;20241;-77
2022/12/03 02:06:11;;;;;;;77.47;18.80;;;;;;;;;;5035434;28;20291;-77
2022/12/03 02:08:40;;;;;;;84.78;20.27;;;;;;;;;;5034042;28;20675;-76
2022/12/03 02:11:09;;;;;;;81.38;18.50;;;;;;;;;;5035050;28;20209;-77
2022/12/03 02:13:37;;;;;;;81.63;19.63;;;;;;;;;;5035472;28;20209;-77
2022/12/03 02:16:04;;;;;;;80.85;19.65;;;;;;;;;;5034920;28;20276;-77
2022/12/03 02:18:31;;;;;;;86.28;19.80;;;;;;;;;;5034683;28;20213;-77
2022/12/03 02:21:03;;;;;;;84.35;20.25;;;;;;;;;;5034970;28;20548;-77
2022/12/03 02:23:33;;;;;;;81.55;18.30;;;;;;;;;;5034582;28;20668;-77
2022/12/03 02:26:02;;;;;;;79.32;19.02;;;;;;;;;;5034836;28;20209;-77
2022/12/03 02:28:29;;;;;;;81.78;18.90;;;;;;;;;;5034470;28;20705;-77
2022/12/03 02:30:57;;;;;;;83.55;19.85;;;;;;;;;;5034587;28;20209;-76
2022/12/03 02:33:24;;;;;;;80.38;19.70;;;;;;;;;;5031678;28;20210;-77
2022/12/03 02:35:52;;;;;;;82.15;20.70;;;;;;;;;;5034750;28;20689;-77
2022/12/03 02:38:21;;;;;;;90.65;19.80;;;;;;;;;;5034747;28;20216;-77
2022/12/03 02:40:51;;;;;;;80.38;19.63;;;;;;;;;;5033666;28;20236;-77
2022/12/03 02:43:19;;;;;;;80.80;20.20;;;;;;;;;;5034389;28;20215;-77
2022/12/03 02:45:48;;;;;;;81.90;19.05;;;;;;;;;;5034976;28;20257;-77
2022/12/03 02:48:17;;;;;;;79.50;17.73;;;;;;;;;;5034438;28;20575;-77
2022/12/03 02:50:47;;;;;;;80.43;17.40;;;;;;;;;;5033903;28;20739;-77
2022/12/03 02:53:16;;;;;;;82.30;19.20;;;;;;;;;;5034700;28;20223;-77
2022/12/03 02:55:43;;;;;;;77.93;18.08;;;;;;;;;;5034736;28;20292;-77
2022/12/03 02:58:11;;;;;;;83.22;19.02;;;;;;;;;;5034145;28;20288;-77
2022/12/03 03:00:42;;;;;;;79.32;19.02;;;;;;;;;;5033793;28;20738;-77
2022/12/03 03:03:09;;;;;;;78.47;18.15;;;;;;;;;;5034058;28;20213;-77
2022/12/03 03:05:38;;;;;;;82.57;20.98;;;;;;;;;;5033958;28;20240;-77
2022/12/03 03:08:06;;;;;;;80.25;18.50;;;;;;;;;;5034181;28;20236;-77
2022/12/03 03:10:37;;;;;;;80.43;17.50;;;;;;;;;;5033245;28;20232;-77
2022/12/03 03:13:09;;;;;;;79.50;17.75;;;;;;;;;;5034411;28;20220;-77
2022/12/03 03:15:45;;;;;;;78.57;16.92;;;;;;;;;;5033949;28;20211;-77
2022/12/03 03:18:13;;;;;;;80.32;17.58;;;;;;;;;;5033821;28;20219;-77
2022/12/03 03:20:41;;;;;;;81.13;18.60;;;;;;;;;;5033334;28;20647;-77
2022/12/03 03:23:14;;;;;;;77.47;18.58;;;;;;;;;;5033794;28;20299;-77
2022/12/03 03:25:43;;;;;;;82.43;18.60;;;;;;;;;;5033775;28;20249;-77
2022/12/03 03:28:11;;;;;;;82.43;18.00;;;;;;;;;;5034047;28;20220;-77
2022/12/03 03:30:39;;;;;;;81.75;17.75;;;;;;;;;;5033426;28;20245;-77
2022/12/03 03:33:08;;;;;;;82.60;19.15;;;;;;;;;;5033981;28;20221;-77
2022/12/03 03:35:36;;;;;;;79.50;18.05;;;;;;;;;;5033961;28;20208;-77
2022/12/03 03:38:03;;;;;;;78.10;17.63;;;;;;;;;;5033837;28;20274;-77
2022/12/03 03:40:31;;;;;;;81.35;18.98;;;;;;;;;;5033346;28;20669;-78
2022/12/03 03:42:59;;;;;;;84.32;19.80;;;;;;;;;;5034035;28;20206;-78
2022/12/03 03:45:27;;;;;;;81.38;18.48;;;;;;;;;;5033829;28;20284;-77
2022/12/03 03:47:55;;;;;;;82.53;17.67;;;;;;;;;;5033722;28;20238;-77
2022/12/03 03:50:25;;;;;;;81.15;19.05;;;;;;;;;;5033104;28;20234;-77
2022/12/03 03:52:52;;;;;;;81.25;19.15;;;;;;;;;;5033502;28;20212;-77
2022/12/03 03:55:20;;;;;;;82.80;20.25;;;;;;;;;;5033515;28;20676;-78
2022/12/03 03:57:48;;;;;;;88.28;20.63;;;;;;;;;;5030282;28;20220;-77
2022/12/03 04:00:16;;;;;;;83.18;19.80;;;;;;;;;;5011886;28;20228;-77
2022/12/03 04:02:44;;;;;;;85.90;19.75;;;;;;;;;;5012570;28;20217;-77
2022/12/03 04:05:16;;;;;;;82.18;18.05;;;;;;;;;;5013493;28;20221;-77
2022/12/03 04:07:44;;;;;;;83.85;18.40;;;;;;;;;;5014055;28;20210;-77
2022/12/03 04:12:55;;;;;;;81.47;18.80;;;;;;;;;;5014300;28;20202;-77
2022/12/03 04:15:23;;;;;;;82.10;18.77;;;;;;;;;;5013489;28;20299;-78
2022/12/03 04:18:41;;;;;;;78.65;17.73;;;;;;;;;;5014366;28;20205;-77
2022/12/03 04:20:38;;;;;;;80.90;18.13;;;;;;;;;;5013134;28;20229;-78
2022/12/03 04:23:06;;;;;;;85.13;18.75;;;;;;;;;;5015105;28;20242;-78
2022/12/03 04:28:50;;;;;;;85.85;20.08;;;;;;;;;;4972101;28;20281;-77
2022/12/03 04:36:46;;;;;;;80.10;18.92;;;;;;;;;;5034218;28;20269;-78
2022/12/03 04:39:15;;;;;;;81.13;20.20;;;;;;;;;;5033371;28;20267;-78
2022/12/03 04:41:42;;;;;;;84.25;19.88;;;;;;;;;;5033971;28;20248;-78
2022/12/03 04:46:54;;;;;;;83.75;19.42;;;;;;;;;;5034354;28;20588;-78
2022/12/03 04:49:21;;;;;;;82.67;17.60;;;;;;;;;;5033763;28;20748;-78
2022/12/03 04:51:49;;;;;;;85.43;19.42;;;;;;;;;;5034630;28;20484;-78
2022/12/03 04:54:17;;;;;;;82.80;19.45;;;;;;;;;;5034706;28;20245;-78
2022/12/03 04:56:45;;;;;;;80.53;19.02;;;;;;;;;;5034056;28;20654;-78
2022/12/03 04:59:12;;;;;;;84.00;17.90;;;;;;;;;;5034108;28;20268;-78
2022/12/03 05:01:39;;;;;;;83.55;18.38;;;;;;;;;;5034747;28;20250;-78
2022/12/03 05:04:06;;;;;;;77.18;17.42;;;;;;;;;;5034453;28;20317;-78
2022/12/03 05:06:34;;;;;;;79.45;19.10;;;;;;;;;;5035299;28;20249;-80
2022/12/03 05:11:45;;;;;;;83.60;16.77;;;;;;;;;;5037217;28;20204;-80
2022/12/03 05:14:13;;;;;;;82.05;18.27;;;;;;;;;;5036400;28;20210;-80
2022/12/03 05:16:40;;;;;;;80.68;18.00;;;;;;;;;;5036911;28;20220;-79
2022/12/03 05:19:08;;;;;;;81.28;18.80;;;;;;;;;;5036583;28;20227;-80
2022/12/03 05:21:36;;;;;;;82.72;18.65;;;;;;;;;;5036161;28;20205;-80
2022/12/03 05:30:28;;;;;;;86.03;20.13;;;;;;;;;;4972896;28;20639;-80
2022/12/03 05:32:55;;;;;;;85.65;19.88;;;;;;;;;;4974367;28;20670;-81
2022/12/03 05:35:30;;;;;;;81.88;20.27;;;;;;;;;;4975060;28;20631;-80
2022/12/03 05:43:59;;;;;;;82.55;19.13;;;;;;;;;;4972680;28;20302;-84
2022/12/03 05:46:35;;;;;;;83.90;20.02;;;;;;;;;;4970744;28;20224;-83
2022/12/03 05:56:02;;;;;;;103.45;34.22;;;;;;;;;;4953443;28;20299;-82
2022/12/03 05:58:45;;;;;;;98.72;28.92;;;;;;;;;;4954172;28;20343;-82
2022/12/03 06:01:33;;;;;;;88.43;22.85;;;;;;;;;;4952766;28;20221;-79
2022/12/03 06:04:01;;;;;;;86.47;21.85;;;;;;;;;;4982047;28;20221;-78
2022/12/03 06:06:28;;;;;;;86.78;21.45;;;;;;;;;;5012404;28;20299;-78
2022/12/03 06:08:56;;;;;;;82.55;19.80;;;;;;;;;;5011006;28;20656;-78
2022/12/03 06:11:23;;;;;;;81.78;19.55;;;;;;;;;;5012331;28;20210;-79
2022/12/03 06:13:50;;;;;;;84.15;20.73;;;;;;;;;;5012081;28;20259;-79
2022/12/03 06:16:17;;;;;;;85.60;21.08;;;;;;;;;;5012264;28;20325;-78
2022/12/03 06:18:44;;;;;;;82.82;21.23;;;;;;;;;;5011019;28;20742;-78
2022/12/03 06:21:18;;;;;;;83.05;20.02;;;;;;;;;;5013360;28;20216;-80
2022/12/03 06:23:45;;;;;;;83.15;21.85;;;;;;;;;;5011144;28;20627;-82
2022/12/03 06:26:13;;;;;;;85.78;21.17;;;;;;;;;;5012243;28;20296;-83
2022/12/03 06:28:45;;;;;;;88.43;22.75;;;;;;;;;;5010963;28;20245;-82
2022/12/03 06:31:12;;;;;;;91.05;24.80;;;;;;;;;;5012258;28;20209;-82
2022/12/03 06:33:39;;;;;;;88.13;22.67;;;;;;;;;;5011671;28;20221;-82
2022/12/03 06:36:07;;;;;;;96.78;23.92;;;;;;;;;;5012235;28;20293;-81
2022/12/03 06:38:35;;;;;;;86.90;20.02;;;;;;;;;;5013731;28;20241;-81
2022/12/03 06:41:02;;;;;;;86.68;20.40;;;;;;;;;;5015383;28;20749;-81
2022/12/03 06:43:30;;;;;;;85.25;21.50;;;;;;;;;;5017027;28;20613;-81
2022/12/03 06:45:57;;;;;;;86.95;21.02;;;;;;;;;;5015962;28;20780;-81
2022/12/03 06:48:24;;;;;;;84.15;20.73;;;;;;;;;;5015926;28;20683;-83
2022/12/03 06:51:06;;;;;;;84.78;22.08;;;;;;;;;;4987452;28;20626;-83
2022/12/03 06:53:33;;;;;;;89.40;23.20;;;;;;;;;;5038317;28;20256;-79
2022/12/03 06:56:02;;;;;;;87.45;22.52;;;;;;;;;;5037644;28;20287;-78
2022/12/03 06:58:29;;;;;;;89.47;22.65;;;;;;;;;;5037313;28;20644;-79
2022/12/03 07:00:56;;;;;;;86.10;21.67;;;;;;;;;;5036906;28;20251;-79
2022/12/03 07:03:23;;;;;;;89.22;20.83;;;;;;;;;;5038026;28;20252;-80
2022/12/03 07:05:50;;;;;;;83.50;19.63;;;;;;;;;;5037912;28;20270;-79
2022/12/03 07:08:18;;;;;;;88.63;22.88;;;;;;;;;;5037673;28;20251;-79
2022/12/03 07:10:45;;;;;;;88.07;20.98;;;;;;;;;;5037131;28;20253;-79
2022/12/03 07:13:13;;;;;;;89.78;21.98;;;;;;;;;;5037581;28;20260;-79
2022/12/03 07:15:40;;;;;;;89.63;20.77;;;;;;;;;;5037602;28;20296;-79
2022/12/03 07:18:07;;;;;;;92.07;23.33;;;;;;;;;;5037864;28;20295;-79
2022/12/03 07:20:35;;;;;;;87.78;21.35;;;;;;;;;;5037103;28;20319;-79
2022/12/03 07:23:02;;;;;;;86.15;21.92;;;;;;;;;;5038205;28;20232;-79
2022/12/03 07:25:29;;;;;;;84.97;21.20;;;;;;;;;;5037912;28;20743;-79
2022/12/03 07:27:56;;;;;;;89.85;22.40;;;;;;;;;;5037650;28;20217;-79
2022/12/03 07:30:26;;;;;;;92.35;24.15;;;;;;;;;;5037591;28;20291;-79
2022/12/03 07:32:53;;;;;;;88.32;20.40;;;;;;;;;;5037615;28;20210;-79
2022/12/03 07:35:21;;;;;;;86.53;19.83;;;;;;;;;;5037712;28;20204;-78
2022/12/03 07:37:48;;;;;;;87.53;21.00;;;;;;;;;;5037556;28;20809;-78
2022/12/03 07:40:15;;;;;;;89.45;21.55;;;;;;;;;;5036415;28;20318;-79
2022/12/03 07:42:42;;;;;;;87.65;21.27;;;;;;;;;;5037672;28;20277;-79
2022/12/03 07:45:10;;;;;;;88.35;22.30;;;;;;;;;;5038074;28;20256;-79
2022/12/03 07:47:39;;;;;;;98.68;24.35;;;;;;;;;;5037940;28;20603;-78
2022/12/03 07:50:06;;;;;;;98.15;24.88;;;;;;;;;;5036683;28;20269;-79
2022/12/03 07:52:33;;;;;;;99.22;24.65;;;;;;;;;;5037194;28;20274;-79
2022/12/03 07:55:00;;;;;;;100.47;26.65;;;;;;;;;;5037538;28;20631;-78
2022/12/03 07:57:28;;;;;;;100.88;26.58;;;;;;;;;;5037805;28;20304;-78
2022/12/03 07:59:55;;;;;;;96.82;24.35;;;;;;;;;;5036515;28;20240;-78
2022/12/03 08:02:22;;;;;;;97.93;25.83;;;;;;;;;;5037452;28;20245;-78
2022/12/03 08:04:50;;;;;;;93.15;24.85;;;;;;;;;;5037833;28;20248;-78
2022/12/03 08:07:18;;;;;;;104.80;28.23;;;;;;;;;;5036728;28;20212;-78
2022/12/03 08:09:45;;;;;;;98.90;26.45;;;;;;;;;;5022077;28;20688;-78
2022/12/03 08:12:16;;;;;;;98.97;25.30;;;;;;;;;;5016278;28;20266;-78
2022/12/03 08:14:43;;;;;;;91.80;25.38;;;;;;;;;;5015697;28;20217;-78
2022/12/03 08:17:11;;;;;;;96.68;27.85;;;;;;;;;;5015529;28;20690;-78
2022/12/03 08:19:38;;;;;;;100.85;26.13;;;;;;;;;;5014298;28;20270;-78
2022/12/03 08:22:11;;;;;;;108.22;26.55;;;;;;;;;;5015113;28;20218;-78
2022/12/03 08:24:38;;;;;;;92.38;23.02;;;;;;;;;;5015065;28;20231;-78
2022/12/03 08:27:06;;;;;;;92.90;22.95;;;;;;;;;;5014947;28;20257;-77
2022/12/03 08:29:33;;;;;;;94.38;24.27;;;;;;;;;;5014027;28;20228;-76
2022/12/03 08:32:00;;;;;;;98.20;25.25;;;;;;;;;;5015209;28;20633;-78
2022/12/03 08:34:30;;;;;;;101.85;25.48;;;;;;;;;;5014862;28;20268;-78
2022/12/03 08:36:59;;;;;;;90.18;24.65;;;;;;;;;;5014688;28;20702;-78
2022/12/03 08:39:32;;;;;;;96.60;24.52;;;;;;;;;;5013700;28;20235;-77
2022/12/03 08:44:59;;;;;;;87.68;21.30;;;;;;;;;;5014310;28;20231;-77
2022/12/03 08:47:26;;;;;;;94.35;23.33;;;;;;;;;;5014121;28;20252;-77
2022/12/03 08:49:56;;;;;;;88.60;22.15;;;;;;;;;;5012002;28;20325;-77
2022/12/03 08:52:27;;;;;;;91.50;22.65;;;;;;;;;;5012452;28;20217;-77
2022/12/03 08:54:56;;;;;;;88.47;21.70;;;;;;;;;;5013037;28;20287;-77
2022/12/03 08:57:25;;;;;;;91.75;22.77;;;;;;;;;;5012890;28;20250;-77
2022/12/03 08:59:55;;;;;;;91.80;20.98;;;;;;;;;;5011330;28;20668;-77
2022/12/03 09:02:27;;;;;;;88.32;21.88;;;;;;;;;;5012539;28;20232;-77
2022/12/03 09:04:54;;;;;;;87.75;19.58;;;;;;;;;;5012439;28;20199;-76
2022/12/03 09:07:21;;;;;;;90.18;22.38;;;;;;;;;;5013965;28;20700;-76
2022/12/03 09:09:48;;;;;;;86.95;19.98;;;;;;;;;;5031055;28;20321;-75
2022/12/03 09:12:17;;;;;;;87.70;21.08;;;;;;;;;;5032222;28;20326;-77
2022/12/03 09:14:44;;;;;;;87.32;20.95;;;;;;;;;;5032007;28;20248;-76
2022/12/03 09:17:11;;;;;;;86.07;19.88;;;;;;;;;;5031867;28;20287;-77
2022/12/03 09:19:43;;;;;;;83.03;17.77;;;;;;;;;;5031095;28;20261;-75
2022/12/03 09:22:11;;;;;;;85.32;20.15;;;;;;;;;;5032020;28;20206;-75
2022/12/03 09:24:38;;;;;;;88.65;19.73;;;;;;;;;;5009013;28;20660;-77
2022/12/03 09:27:05;;;;;;;89.82;20.80;;;;;;;;;;5011616;28;20309;-77
2022/12/03 09:29:34;;;;;;;89.63;20.88;;;;;;;;;;5010685;28;20727;-76
2022/12/03 09:32:01;;;;;;;91.10;20.50;;;;;;;;;;5010177;28;20299;-76
2022/12/03 09:34:28;;;;;;;86.47;20.20;;;;;;;;;;5011901;28;20297;-76
2022/12/03 09:36:55;;;;;;;94.75;22.15;;;;;;;;;;5011838;28;20205;-75
2022/12/03 09:39:23;;;;;;;87.20;19.63;;;;;;;;;;5011105;28;20224;-76
2022/12/03 09:41:50;;;;;;;86.25;20.05;;;;;;;;;;5011756;28;20265;-76
2022/12/03 09:44:17;;;;;;;84.82;20.85;;;;;;;;;;5011608;28;20259;-75
2022/12/03 09:46:46;;;;;;;88.22;20.67;;;;;;;;;;4992516;28;20652;-75
2022/12/03 09:49:15;;;;;;;83.78;19.23;;;;;;;;;;4991332;28;20329;-75
2022/12/03 09:51:42;;;;;;;82.75;18.48;;;;;;;;;;4992415;28;20204;-74
2022/12/03 09:54:11;;;;;;;88.95;20.23;;;;;;;;;;4992416;28;20225;-74
2022/12/03 09:56:38;;;;;;;85.50;19.85;;;;;;;;;;4992419;28;20637;-74
2022/12/03 09:59:07;;;;;;;82.88;18.75;;;;;;;;;;4995381;28;20309;-75
2022/12/03 10:01:34;;;;;;;83.43;19.08;;;;;;;;;;5011740;28;20622;-75
2022/12/03 10:04:03;;;;;;;85.03;19.83;;;;;;;;;;5011769;28;20213;-74
2022/12/03 10:06:31;;;;;;;85.45;19.88;;;;;;;;;;5010767;28;20673;-74
2022/12/03 10:08:59;;;;;;;90.72;23.90;;;;;;;;;;5005325;28;20878;-75
2022/12/03 10:11:27;;;;;;;79.23;19.03;;;;;;;;;;5010909;28;20218;-74
2022/12/03 10:13:55;;;;;;;84.72;18.40;;;;;;;;;;5014268;28;21142;-74
2022/12/03 10:16:22;;;;;;;80.57;18.17;;;;;;;;;;5015058;28;20615;-76
2022/12/03 10:18:51;;;;;;;82.65;19.27;;;;;;;;;;5014119;28;20233;-76
2022/12/03 10:21:21;;;;;;;78.07;18.02;;;;;;;;;;5014856;28;20297;-75
2022/12/03 10:23:49;;;;;;;83.30;19.73;;;;;;;;;;5014890;28;20759;-76
2022/12/03 10:26:16;;;;;;;80.60;17.25;;;;;;;;;;5014994;28;20237;-76
2022/12/03 10:28:45;;;;;;;79.47;17.60;;;;;;;;;;5014090;28;20224;-75
2022/12/03 10:31:14;;;;;;;82.93;17.35;;;;;;;;;;5014755;28;20272;-75
2022/12/03 10:33:43;;;;;;;79.68;17.90;;;;;;;;;;5015160;28;20272;-76
2022/12/03 10:36:17;;;;;;;79.50;17.83;;;;;;;;;;5014640;28;20207;-76
2022/12/03 10:38:46;;;;;;;80.70;19.95;;;;;;;;;;5014571;28;20671;-75
2022/12/03 10:41:23;;;;;;;82.10;19.33;;;;;;;;;;5015557;28;20247;-76
2022/12/03 10:43:51;;;;;;;89.22;19.75;;;;;;;;;;5014901;28;20239;-73
2022/12/03 10:46:21;;;;;;;78.03;16.67;;;;;;;;;;5014777;28;20668;-75
2022/12/03 10:49:03;;;;;;;81.07;16.92;;;;;;;;;;5013692;28;20224;-75
2022/12/03 10:51:31;;;;;;;83.28;18.27;;;;;;;;;;5007517;28;20291;-77
2022/12/03 10:53:59;;;;;;;77.65;16.88;;;;;;;;;;5014448;28;20236;-74
2022/12/03 10:56:27;;;;;;;86.00;19.83;;;;;;;;;;5013646;28;20449;-75
2022/12/03 10:58:55;;;;;;;80.50;17.63;;;;;;;;;;5013812;28;20238;-76
2022/12/03 11:01:23;;;;;;;82.43;16.63;;;;;;;;;;5014596;28;20210;-75
2022/12/03 11:03:50;;;;;;;81.38;17.90;;;;;;;;;;5014869;28;20314;-76
2022/12/03 11:06:19;;;;;;;83.88;19.17;;;;;;;;;;5014627;28;20260;-75
2022/12/03 11:08:47;;;;;;;83.93;17.55;;;;;;;;;;5013685;28;20322;-75
2022/12/03 11:11:18;;;;;;;81.60;18.67;;;;;;;;;;5014263;28;20246;-76
2022/12/03 11:13:47;;;;;;;80.18;16.90;;;;;;;;;;5013648;28;20254;-75
2022/12/03 11:16:15;;;;;;;80.35;18.45;;;;;;;;;;5013649;28;20297;-76
2022/12/03 11:18:59;;;;;;;84.15;18.38;;;;;;;;;;5012571;28;20303;-76
2022/12/03 11:21:27;;;;;;;80.15;15.55;;;;;;;;;;5013552;28;20210;-76
2022/12/03 11:24:04;;;;;;;79.95;16.60;;;;;;;;;;5012911;28;20210;-75
2022/12/03 11:26:49;;;;;;;80.85;16.75;;;;;;;;;;5013249;28;20313;-76
2022/12/03 11:29:38;;;;;;;78.40;15.95;;;;;;;;;;5013216;28;20268;-76
2022/12/03 11:32:05;;;;;;;77.82;15.55;;;;;;;;;;5014010;28;20263;-76
2022/12/03 11:34:41;;;;;;;75.80;14.40;;;;;;;;;;5014003;28;20207;-76
2022/12/03 11:37:25;;;;;;;77.50;15.38;;;;;;;;;;5014215;28;20239;-75
2022/12/03 11:40:16;;;;;;;77.80;15.25;;;;;;;;;;5013197;28;20239;-76
2022/12/03 11:42:43;;;;;;;77.05;13.65;;;;;;;;;;5013882;28;20300;-75
2022/12/03 11:45:19;;;;;;;74.05;14.25;;;;;;;;;;5013661;28;20239;-75
2022/12/03 11:47:47;;;;;;;72.53;14.43;;;;;;;;;;5013533;28;20325;-75
2022/12/03 11:50:21;;;;;;;74.68;14.25;;;;;;;;;;5013125;28;20230;-76
2022/12/03 11:52:50;;;;;;;76.70;14.90;;;;;;;;;;5013815;28;20220;-76
2022/12/03 11:55:18;;;;;;;74.80;13.77;;;;;;;;;;5013701;28;20294;-75
2022/12/03 11:57:46;;;;;;;74.00;13.73;;;;;;;;;;5013999;28;20244;-75
2022/12/03 12:00:23;;;;;;;71.72;13.30;;;;;;;;;;5012872;28;20312;-76
2022/12/03 12:02:51;;;;;;;79.75;18.65;;;;;;;;;;5013641;28;20217;-76
2022/12/03 12:05:23;;;;;;;78.53;14.15;;;;;;;;;;5013451;28;20247;-76
2022/12/03 12:07:50;;;;;;;77.75;15.55;;;;;;;;;;5013184;28;20235;-75
2022/12/03 12:10:32;;;;;;;74.72;14.75;;;;;;;;;;5012342;28;20282;-75
2022/12/03 12:12:59;;;;;;;78.75;17.63;;;;;;;;;;5013144;28;20464;-76
2022/12/03 12:15:35;;;;;;;79.65;16.02;;;;;;;;;;5013302;28;20222;-76
2022/12/03 12:18:21;;;;;;;80.05;16.25;;;;;;;;;;5013182;28;20237;-76
2022/12/03 12:20:48;;;;;;;75.20;14.23;;;;;;;;;;5012731;28;20469;-76
2022/12/03 12:23:22;;;;;;;75.00;14.18;;;;;;;;;;5012522;28;20236;-76
2022/12/03 12:25:50;;;;;;;81.47;18.15;;;;;;;;;;5012438;28;20296;-76
2022/12/03 12:28:17;;;;;;;72.78;13.90;;;;;;;;;;5013049;28;20210;-76
2022/12/03 12:30:45;;;;;;;76.05;15.00;;;;;;;;;;5012270;28;20332;-76
2022/12/03 12:33:18;;;;;;;74.28;14.00;;;;;;;;;;5012742;28;20248;-76
2022/12/03 12:35:45;;;;;;;74.30;13.30;;;;;;;;;;5012378;28;20255;-76
2022/12/03 12:38:14;;;;;;;77.13;14.60;;;;;;;;;;5012835;28;20241;-76
2022/12/03 12:40:43;;;;;;;78.13;15.40;;;;;;;;;;5012275;28;20266;-77
2022/12/03 12:43:14;;;;;;;78.35;15.90;;;;;;;;;;5013963;28;20211;-77
2022/12/03 12:45:42;;;;;;;78.60;15.55;;;;;;;;;;5013417;28;20317;-77
2022/12/03 12:48:16;;;;;;;78.93;15.30;;;;;;;;;;5013752;28;20727;-77
2022/12/03 12:50:44;;;;;;;79.63;15.07;;;;;;;;;;5013002;28;20260;-77
2022/12/03 12:53:13;;;;;;;78.40;15.68;;;;;;;;;;5014846;28;20215;-77
2022/12/03 12:55:40;;;;;;;75.47;16.60;;;;;;;;;;5015117;28;20456;-77
2022/12/03 12:58:11;;;;;;;78.28;16.65;;;;;;;;;;5013052;28;20665;-76
2022/12/03 13:00:38;;;;;;;73.75;14.73;;;;;;;;;;5011905;28;20239;-77
2022/12/03 13:03:07;;;;;;;77.05;13.82;;;;;;;;;;5012877;28;20214;-76
2022/12/03 13:05:39;;;;;;;79.32;14.88;;;;;;;;;;5012868;28;20294;-76
2022/12/03 13:08:15;;;;;;;81.15;18.55;;;;;;;;;;5012422;28;20233;-76
2022/12/03 13:10:43;;;;;;;79.43;16.05;;;;;;;;;;5011744;28;20263;-76
2022/12/03 13:13:18;;;;;;;79.70;16.35;;;;;;;;;;5012601;28;20304;-76
2022/12/03 13:15:49;;;;;;;84.30;17.02;;;;;;;;;;5012667;28;20278;-77
2022/12/03 13:18:33;;;;;;;81.18;16.00;;;;;;;;;;5012326;28;20208;-77
2022/12/03 13:21:07;;;;;;;81.75;17.77;;;;;;;;;;5012362;28;20259;-77
2022/12/03 13:23:35;;;;;;;83.40;16.38;;;;;;;;;;5012625;28;20401;-77
2022/12/03 13:26:04;;;;;;;80.50;14.77;;;;;;;;;;5012484;28;20259;-77
2022/12/03 13:28:32;;;;;;;82.30;16.90;;;;;;;;;;5011769;28;20209;-75
2022/12/03 13:31:22;;;;;;;78.78;14.80;;;;;;;;;;5012431;28;20207;-77
2022/12/03 13:33:49;;;;;;;78.57;14.80;;;;;;;;;;5012655;28;20218;-77
2022/12/03 13:36:19;;;;;;;78.72;16.50;;;;;;;;;;5012641;28;20306;-76
2022/12/03 13:38:47;;;;;;;85.10;15.48;;;;;;;;;;5020998;28;20222;-75
2022/12/03 13:43:57;;;;;;;77.65;13.10;;;;;;;;;;5011674;28;20214;-77
2022/12/03 13:46:24;;;;;;;77.22;14.05;;;;;;;;;;5013414;28;20232;-77
2022/12/03 13:48:52;;;;;;;77.85;15.35;;;;;;;;;;5016209;28;20274;-77
2022/12/03 13:51:24;;;;;;;78.63;14.90;;;;;;;;;;5016191;28;20246;-76
2022/12/03 13:53:51;;;;;;;80.60;15.13;;;;;;;;;;5016275;28;20704;-77
2022/12/03 13:56:21;;;;;;;77.18;15.20;;;;;;;;;;5016289;28;20215;-76
2022/12/03 13:58:49;;;;;;;83.60;15.20;;;;;;;;;;5015313;28;20244;-78
2022/12/03 14:01:16;;;;;;;79.20;15.23;;;;;;;;;;5016350;28;20246;-77
2022/12/03 14:03:43;;;;;;;82.13;16.38;;;;;;;;;;5016348;28;20706;-77
2022/12/03 14:06:10;;;;;;;75.78;14.20;;;;;;;;;;5016917;28;20244;-76
2022/12/03 14:08:39;;;;;;;79.30;15.40;;;;;;;;;;5015695;28;20211;-77
2022/12/03 14:11:06;;;;;;;80.45;15.25;;;;;;;;;;5016408;28;20303;-77
2022/12/03 14:13:33;;;;;;;76.75;15.10;;;;;;;;;;5017575;28;20300;-78
2022/12/03 14:16:00;;;;;;;79.40;15.50;;;;;;;;;;5016767;28;20294;-77
2022/12/03 14:18:27;;;;;;;82.13;14.82;;;;;;;;;;5016490;28;20211;-75
2022/12/03 14:20:54;;;;;;;83.35;15.70;;;;;;;;;;5016072;28;20261;-75
2022/12/03 14:23:22;;;;;;;75.82;13.57;;;;;;;;;;5017002;28;20208;-77
2022/12/03 14:25:50;;;;;;;79.72;16.35;;;;;;;;;;5016720;28;20244;-76
2022/12/03 14:28:17;;;;;;;81.53;16.33;;;;;;;;;;5016937;28;20267;-77
2022/12/03 14:30:44;;;;;;;78.15;14.27;;;;;;;;;;5016725;28;20313;-77
2022/12/03 14:33:12;;;;;;;81.78;16.35;;;;;;;;;;5027399;28;20295;-77
2022/12/03 14:35:39;;;;;;;79.25;15.05;;;;;;;;;;5037116;28;20306;-76
2022/12/03 14:38:06;;;;;;;81.22;16.35;;;;;;;;;;5036505;28;20288;-77
2022/12/03 14:40:33;;;;;;;81.00;15.90;;;;;;;;;;5036135;28;20732;-76
2022/12/03 14:43:02;;;;;;;79.75;15.35;;;;;;;;;;5038098;28;20209;-78
2022/12/03 14:45:29;;;;;;;85.85;17.33;;;;;;;;;;5037919;28;20216;-78
2022/12/03 14:47:56;;;;;;;82.53;16.73;;;;;;;;;;5037915;28;20413;-78
2022/12/03 14:50:24;;;;;;;76.32;13.93;;;;;;;;;;5037225;28;20320;-77
2022/12/03 14:52:51;;;;;;;77.60;14.23;;;;;;;;;;5037283;28;20645;-78
2022/12/03 14:55:18;;;;;;;81.15;14.95;;;;;;;;;;5036558;28;20295;-77
2022/12/03 14:57:45;;;;;;;78.40;17.40;;;;;;;;;;5035387;28;20294;-77
2022/12/03 15:00:14;;;;;;;79.43;16.55;;;;;;;;;;5034380;28;20260;-77
2022/12/03 15:02:41;;;;;;;77.03;14.70;;;;;;;;;;5035221;28;20208;-76
2022/12/03 15:05:09;;;;;;;75.13;14.27;;;;;;;;;;5034456;28;20223;-77
2022/12/03 15:07:38;;;;;;;78.03;14.52;;;;;;;;;;5034465;28;20235;-76
2022/12/03 15:10:05;;;;;;;75.95;13.77;;;;;;;;;;5033685;28;20236;-77
2022/12/03 15:12:33;;;;;;;75.13;14.02;;;;;;;;;;5034765;28;20701;-77
2022/12/03 15:15:00;;;;;;;77.85;14.75;;;;;;;;;;5034783;28;20234;-77
2022/12/03 15:17:28;;;;;;;77.40;13.70;;;;;;;;;;5035021;28;20210;-78
2022/12/03 15:19:55;;;;;;;73.88;13.13;;;;;;;;;;5034842;28;20324;-77